createdAt,value
2024-01-11T00:01:51.508Z,37.40
2024-01-11T00:04:24.071Z,31.80
2024-01-11T00:06:56.969Z,30.30
2024-01-11T00:09:29.543Z,21.70
2024-01-11T00:12:02.070Z,45.30
2024-01-11T00:14:34.675Z,24.30
2024-01-11T00:17:07.855Z,28.90
2024-01-11T00:19:40.470Z,24.20
2024-01-11T00:22:13.100Z,21.00
2024-01-11T00:24:45.610Z,24.60
2024-01-11T00:27:18.352Z,27.90
2024-01-11T00:29:51.002Z,20.60
2024-01-11T00:32:23.644Z,20.60
2024-01-11T00:34:56.366Z,23.80
2024-01-11T00:37:29.064Z,20.50
2024-01-11T00:40:01.734Z,22.10
2024-01-11T00:42:36.022Z,17.00
2024-01-11T00:45:11.108Z,21.00
2024-01-11T00:47:43.846Z,19.20
2024-01-11T00:50:16.658Z,18.50
2024-01-11T00:52:49.290Z,18.10
2024-01-11T00:55:21.852Z,21.20
2024-01-11T00:57:54.386Z,21.50
2024-01-11T01:00:26.831Z,19.60
2024-01-11T01:02:59.375Z,19.00
2024-01-11T01:05:32.164Z,22.70
2024-01-11T01:08:05.086Z,21.60
2024-01-11T01:10:37.702Z,19.50
2024-01-11T01:13:10.290Z,23.70
2024-01-11T01:15:43.083Z,19.40
2024-01-11T01:18:15.876Z,20.80
2024-01-11T01:20:48.485Z,20.00
2024-01-11T01:23:21.166Z,21.90
2024-01-11T01:25:54.025Z,35.40
2024-01-11T01:28:26.584Z,25.10
2024-01-11T01:30:59.202Z,31.20
2024-01-11T01:33:32.009Z,35.00
2024-01-11T01:36:05.035Z,31.20
2024-01-11T01:38:37.723Z,26.20
2024-01-11T01:41:10.423Z,27.30
2024-01-11T01:43:43.036Z,30.40
2024-01-11T01:46:20.777Z,37.00
2024-01-11T01:48:54.145Z,32.30
2024-01-11T01:51:29.134Z,35.60
2024-01-11T01:54:03.076Z,24.90
2024-01-11T01:56:35.909Z,35.00
2024-01-11T01:59:09.083Z,27.10
2024-01-11T02:01:41.819Z,77.90
2024-01-11T02:04:15.752Z,42.90
2024-01-11T02:06:49.513Z,28.20
2024-01-11T02:09:22.429Z,27.20
2024-01-11T02:11:55.761Z,24.40
2024-01-11T02:14:28.898Z,23.50
2024-01-11T02:17:03.627Z,22.80
2024-01-11T02:19:36.658Z,22.80
2024-01-11T02:22:17.687Z,26.40
2024-01-11T02:24:50.318Z,24.00
2024-01-11T02:27:22.954Z,27.60
2024-01-11T02:29:55.539Z,23.80
2024-01-11T02:32:28.102Z,19.30
2024-01-11T02:35:00.893Z,44.00
2024-01-11T02:37:33.573Z,23.80
2024-01-11T02:40:07.512Z,37.70
2024-01-11T02:42:40.167Z,55.30
2024-01-11T02:45:14.696Z,43.30
2024-01-11T02:47:47.364Z,36.60
2024-01-11T02:50:20.125Z,49.50
2024-01-11T02:52:52.612Z,32.90
2024-01-11T02:55:25.565Z,59.50
2024-01-11T02:57:58.088Z,38.80
2024-01-11T03:00:30.550Z,29.30
2024-01-11T03:03:03.254Z,29.70
2024-01-11T03:05:35.984Z,43.60
2024-01-11T03:08:09.113Z,25.40
2024-01-11T03:10:42.614Z,24.10
2024-01-11T03:13:15.240Z,22.70
2024-01-11T03:15:47.832Z,22.10
2024-01-11T03:18:20.546Z,23.30
2024-01-11T03:20:53.609Z,20.00
2024-01-11T03:23:26.150Z,22.00
2024-01-11T03:25:59.135Z,22.90
2024-01-11T03:28:32.839Z,24.00
2024-01-11T03:31:05.672Z,22.80
2024-01-11T03:33:38.604Z,26.50
2024-01-11T03:36:15.407Z,24.00
2024-01-11T03:38:50.687Z,25.20
2024-01-11T03:41:24.815Z,21.40
2024-01-11T03:43:57.306Z,23.50
2024-01-11T03:46:29.971Z,26.90
2024-01-11T03:49:02.527Z,22.70
2024-01-11T03:51:35.088Z,21.20
2024-01-11T03:54:08.021Z,19.60
2024-01-11T03:56:42.708Z,18.50
2024-01-11T03:59:15.873Z,23.00
2024-01-11T04:01:48.908Z,22.40
2024-01-11T04:04:21.466Z,20.30
2024-01-11T04:06:55.186Z,22.30
2024-01-11T04:09:27.718Z,18.30
2024-01-11T04:12:00.323Z,17.70
2024-01-11T04:14:33.357Z,24.20
2024-01-11T04:17:06.176Z,59.10
2024-01-11T04:19:38.736Z,89.70
2024-01-11T04:22:11.354Z,163.10
2024-01-11T04:24:45.516Z,49.00
2024-01-11T04:27:18.098Z,406.20
2024-01-11T04:29:50.658Z,134.00
2024-01-11T04:32:23.394Z,202.50
2024-01-11T04:34:56.546Z,174.50
2024-01-11T04:37:31.065Z,172.70
2024-01-11T04:40:04.818Z,189.30
2024-01-11T04:42:37.629Z,183.90
2024-01-11T04:45:10.913Z,268.00
2024-01-11T04:47:43.620Z,302.20
2024-01-11T04:50:17.306Z,125.60
2024-01-11T04:52:51.096Z,118.10
2024-01-11T04:55:23.803Z,549.90
2024-01-11T04:57:56.264Z,235.00
2024-01-11T05:00:28.698Z,130.40
2024-01-11T05:03:01.377Z,402.00
2024-01-11T05:05:34.041Z,161.50
2024-01-11T05:08:07.075Z,62.40
2024-01-11T05:10:41.116Z,199.10
2024-01-11T05:13:13.809Z,151.90
2024-01-11T05:15:46.410Z,133.80
2024-01-11T05:18:19.151Z,62.60
2024-01-11T05:20:51.729Z,142.20
2024-01-11T05:23:24.371Z,42.40
2024-01-11T05:25:56.909Z,40.40
2024-01-11T05:28:29.473Z,111.00
2024-01-11T05:31:02.790Z,148.10
2024-01-11T05:33:35.826Z,144.40
2024-01-11T05:36:10.788Z,77.90
2024-01-11T05:38:44.387Z,47.00
2024-01-11T05:41:17.321Z,41.20
2024-01-11T05:43:50.201Z,35.60
2024-01-11T05:46:22.706Z,43.40
2024-01-11T05:48:55.357Z,34.60
2024-01-11T05:51:28.426Z,23.40
2024-01-11T05:54:00.975Z,24.90
2024-01-11T05:56:33.507Z,101.90
2024-01-11T05:59:06.078Z,58.50
2024-01-11T06:01:44.753Z,68.20
2024-01-11T06:04:17.601Z,51.60
2024-01-11T06:06:50.125Z,55.00
2024-01-11T06:09:22.689Z,23.40
2024-01-11T06:11:55.170Z,42.20
2024-01-11T06:14:28.840Z,45.10
2024-01-11T06:17:01.395Z,34.40
2024-01-11T06:19:34.074Z,22.70
2024-01-11T06:22:06.845Z,15.60
2024-01-11T06:24:39.569Z,13.50
2024-01-11T06:27:12.195Z,16.40
2024-01-11T06:29:44.894Z,26.00
2024-01-11T06:32:17.504Z,16.00
2024-01-11T06:34:50.186Z,22.30
2024-01-11T06:37:23.665Z,18.60
2024-01-11T06:39:56.241Z,13.40
2024-01-11T06:42:28.706Z,16.70
2024-01-11T06:45:02.458Z,28.50
2024-01-11T06:47:35.205Z,50.70
2024-01-11T06:50:10.837Z,16.40
2024-01-11T06:52:43.602Z,20.10
2024-01-11T06:55:16.248Z,14.40
2024-01-11T06:57:51.171Z,18.00
2024-01-11T07:00:24.067Z,22.60
2024-01-11T07:02:56.692Z,17.80
2024-01-11T07:05:30.633Z,10.20
2024-01-11T07:08:03.471Z,11.60
2024-01-11T07:10:36.239Z,13.70
2024-01-11T07:13:11.343Z,13.60
2024-01-11T07:15:44.173Z,8.80
2024-01-11T07:18:17.449Z,8.60
2024-01-11T07:20:50.349Z,10.90
2024-01-11T07:23:23.090Z,14.90
2024-01-11T07:25:55.746Z,9.90
2024-01-11T07:28:28.235Z,12.90
2024-01-11T07:31:00.785Z,14.90
2024-01-11T07:33:33.538Z,11.00
2024-01-11T07:36:07.987Z,11.00
2024-01-11T07:38:40.642Z,12.50
2024-01-11T07:41:13.829Z,10.70
2024-01-11T07:43:53.582Z,10.90
2024-01-11T07:46:35.623Z,9.90
2024-01-11T07:49:12.983Z,11.70
2024-01-11T07:51:45.556Z,11.40
2024-01-11T07:54:18.684Z,11.70
2024-01-11T07:56:51.208Z,8.80
2024-01-11T07:59:23.783Z,13.70
2024-01-11T08:01:56.594Z,68.40
2024-01-11T08:04:29.135Z,15.40
2024-01-11T08:07:03.211Z,19.20
2024-01-11T08:09:35.936Z,13.30
2024-01-11T08:12:11.101Z,9.30
2024-01-11T08:14:44.220Z,9.40
2024-01-11T08:17:17.425Z,10.20
2024-01-11T08:19:49.897Z,9.10
2024-01-11T08:22:27.484Z,11.80
2024-01-11T08:25:00.545Z,11.50
2024-01-11T08:27:33.222Z,13.10
2024-01-11T08:30:07.179Z,10.30
2024-01-11T08:32:40.999Z,44.30
2024-01-11T08:35:14.262Z,17.20
2024-01-11T08:37:47.013Z,15.30
2024-01-11T08:40:19.604Z,12.10
2024-01-11T08:42:52.152Z,9.90
2024-01-11T08:45:24.665Z,10.50
2024-01-11T08:47:58.847Z,10.80
2024-01-11T08:50:33.994Z,11.20
2024-01-11T08:53:06.872Z,9.00
2024-01-11T08:55:39.410Z,11.10
2024-01-11T08:58:12.493Z,12.00
2024-01-11T09:00:45.454Z,14.50
2024-01-11T09:03:18.834Z,10.90
2024-01-11T09:05:51.752Z,10.80
2024-01-11T09:08:24.433Z,15.70
2024-01-11T09:10:57.104Z,20.40
2024-01-11T09:13:30.516Z,10.20
2024-01-11T09:16:03.162Z,10.00
2024-01-11T09:18:36.399Z,12.30
2024-01-11T09:21:09.218Z,13.00
2024-01-11T09:23:42.119Z,11.40
2024-01-11T09:26:14.912Z,10.60
2024-01-11T09:28:48.005Z,13.60
2024-01-11T09:31:20.494Z,11.80
2024-01-11T09:33:54.294Z,12.80
2024-01-11T09:36:27.121Z,10.90
2024-01-11T09:38:59.986Z,11.30
2024-01-11T09:41:33.852Z,12.00
2024-01-11T09:44:08.572Z,12.00
2024-01-11T09:46:44.188Z,10.30
2024-01-11T09:49:21.696Z,9.80
2024-01-11T09:51:58.013Z,9.90
2024-01-11T09:54:31.080Z,9.10
2024-01-11T09:57:04.913Z,8.60
2024-01-11T09:59:38.520Z,12.50
2024-01-11T10:02:13.648Z,12.90
2024-01-11T10:04:46.904Z,8.80
2024-01-11T10:07:22.164Z,9.80
2024-01-11T10:09:55.436Z,9.30
2024-01-11T10:12:28.492Z,9.40
2024-01-11T10:15:11.221Z,8.80
2024-01-11T10:17:47.144Z,10.60
2024-01-11T10:20:25.325Z,10.70
2024-01-11T10:22:58.980Z,9.80
2024-01-11T10:25:32.124Z,10.50
2024-01-11T10:28:04.940Z,12.80
2024-01-11T10:30:37.622Z,12.00
2024-01-11T10:33:11.175Z,10.80
2024-01-11T10:35:44.552Z,10.40
2024-01-11T10:38:18.672Z,13.00
2024-01-11T10:40:51.821Z,15.20
2024-01-11T10:43:25.692Z,19.50
2024-01-11T10:46:05.479Z,14.00
2024-01-11T10:48:41.514Z,11.30
2024-01-11T10:51:21.582Z,13.20
2024-01-11T10:53:55.844Z,19.30
2024-01-11T10:56:33.380Z,12.60
2024-01-11T10:59:07.348Z,12.20
2024-01-11T11:01:41.478Z,11.60
2024-01-11T11:04:15.708Z,14.10
2024-01-11T11:06:48.959Z,16.00
2024-01-11T11:09:22.738Z,15.10
2024-01-11T11:11:58.680Z,14.00
2024-01-11T11:14:33.324Z,21.30
2024-01-11T11:17:06.632Z,15.00
2024-01-11T11:19:39.382Z,10.30
2024-01-11T11:22:16.275Z,13.80
2024-01-11T11:24:48.875Z,14.40
2024-01-11T11:27:21.479Z,13.10
2024-01-11T11:29:54.686Z,11.40
2024-01-11T11:32:40.204Z,8.80
2024-01-11T11:37:44.295Z,11.90
2024-01-11T11:40:17.965Z,10.80
2024-01-11T11:42:50.661Z,10.50
2024-01-11T11:45:30.072Z,8.80
2024-01-11T11:48:02.935Z,8.50
2024-01-11T11:50:36.659Z,10.00
2024-01-11T11:53:13.588Z,10.70
2024-01-11T11:55:46.273Z,9.20
2024-01-11T11:58:19.480Z,9.70
2024-01-11T12:00:53.145Z,9.60
2024-01-11T12:03:30.978Z,9.30
2024-01-11T12:06:04.113Z,9.70
2024-01-11T12:08:37.245Z,10.70
2024-01-11T12:11:10.093Z,10.80
2024-01-11T12:13:45.698Z,24.00
2024-01-11T12:16:18.396Z,22.40
2024-01-11T12:18:52.811Z,19.50
2024-01-11T12:21:25.632Z,27.30
2024-01-11T12:23:58.725Z,13.20
2024-01-11T12:26:31.797Z,12.20
2024-01-11T12:29:04.692Z,11.20
2024-01-11T12:31:37.537Z,10.10
2024-01-11T12:34:11.207Z,11.10
2024-01-11T12:36:44.687Z,8.80
2024-01-11T12:39:18.845Z,11.60
2024-01-11T12:41:51.708Z,9.50
2024-01-11T12:44:25.229Z,7.80
2024-01-11T12:47:02.011Z,13.40
2024-01-11T12:49:35.347Z,9.00
2024-01-11T12:52:08.290Z,9.40
2024-01-11T12:54:40.889Z,9.00
2024-01-11T12:57:15.368Z,9.90
2024-01-11T12:59:47.982Z,7.60
2024-01-11T13:02:21.217Z,9.40
2024-01-11T13:04:54.388Z,9.60
2024-01-11T13:07:27.452Z,8.80
2024-01-11T13:10:00.212Z,8.70
2024-01-11T13:12:32.883Z,10.20
2024-01-11T13:15:06.458Z,9.40
2024-01-11T13:17:39.104Z,8.70
2024-01-11T13:20:14.386Z,11.60
2024-01-11T13:25:17.999Z,11.10
2024-01-11T13:27:50.547Z,15.60
2024-01-11T13:30:23.504Z,10.90
2024-01-11T13:32:56.239Z,18.60
2024-01-11T13:35:29.171Z,10.00
2024-01-11T13:38:01.926Z,9.20
2024-01-11T13:40:35.565Z,8.40
2024-01-11T13:43:08.150Z,39.50
2024-01-11T13:45:40.999Z,10.90
2024-01-11T13:48:13.640Z,12.40
2024-01-11T13:50:46.630Z,11.90
2024-01-11T13:53:19.308Z,10.20
2024-01-11T13:55:52.493Z,8.50
2024-01-11T13:58:25.324Z,8.60
2024-01-11T14:00:58.612Z,12.50
2024-01-11T14:03:31.520Z,10.70
2024-01-11T14:06:05.566Z,9.00
2024-01-11T14:08:38.278Z,11.60
2024-01-11T14:11:10.930Z,9.70
2024-01-11T14:13:43.555Z,11.70
2024-01-11T14:16:17.164Z,11.60
2024-01-11T14:18:50.688Z,19.10
2024-01-11T14:21:26.145Z,18.00
2024-01-11T14:23:59.802Z,14.00
2024-01-11T14:26:33.988Z,10.80
2024-01-11T14:29:06.555Z,11.50
2024-01-11T14:31:40.456Z,8.50
2024-01-11T14:34:13.978Z,13.90
2024-01-11T14:36:46.742Z,22.40
2024-01-11T14:39:19.362Z,11.30
2024-01-11T14:41:52.253Z,12.20
2024-01-11T14:44:24.971Z,11.40
2024-01-11T14:46:58.689Z,11.50
2024-01-11T14:49:31.310Z,8.10
2024-01-11T14:52:04.309Z,8.40
2024-01-11T14:54:37.095Z,9.50
2024-01-11T14:57:10.312Z,9.60
2024-01-11T14:59:42.900Z,11.60
2024-01-11T15:02:15.781Z,18.30
2024-01-11T15:04:48.499Z,15.00
2024-01-11T15:07:21.180Z,12.20
2024-01-11T15:09:53.655Z,10.00
2024-01-11T15:12:26.265Z,19.30
2024-01-11T15:14:59.859Z,19.40
2024-01-11T15:17:32.892Z,12.80
2024-01-11T15:20:06.065Z,19.30
2024-01-11T15:22:38.829Z,12.50
2024-01-11T15:25:13.138Z,21.00
2024-01-11T15:27:45.729Z,25.00
2024-01-11T15:30:18.741Z,21.40
2024-01-11T15:32:51.569Z,23.40
2024-01-11T15:35:24.200Z,21.80
2024-01-11T15:37:56.832Z,22.60
2024-01-11T15:40:29.371Z,22.90
2024-01-11T15:43:02.719Z,22.40
2024-01-11T15:45:36.934Z,43.20
2024-01-11T15:48:10.700Z,23.60
2024-01-11T15:50:43.533Z,23.70
2024-01-11T15:53:16.183Z,18.20
2024-01-11T15:55:49.694Z,17.20
2024-01-11T15:58:22.270Z,20.60
2024-01-11T16:00:55.081Z,26.30
2024-01-11T16:03:27.773Z,26.20
2024-01-11T16:06:00.867Z,21.70
2024-01-11T16:08:34.143Z,21.00
2024-01-11T16:11:07.036Z,38.70
2024-01-11T16:13:41.006Z,30.70
2024-01-11T16:16:13.602Z,25.40
2024-01-11T16:18:46.508Z,18.30
2024-01-11T16:21:19.110Z,22.90
2024-01-11T16:23:52.389Z,37.60
2024-01-11T16:26:25.070Z,31.00
2024-01-11T16:28:58.074Z,23.40
2024-01-11T16:31:30.948Z,17.10
2024-01-11T16:34:04.747Z,27.00
2024-01-11T16:36:41.272Z,21.90
2024-01-11T16:39:14.068Z,20.30
2024-01-11T16:41:48.985Z,17.40
2024-01-11T16:46:54.875Z,16.40
2024-01-11T16:49:27.649Z,13.60
2024-01-11T16:52:02.099Z,11.60
2024-01-11T16:54:34.636Z,11.60
2024-01-11T16:57:09.462Z,15.80
2024-01-11T16:59:42.410Z,10.50
2024-01-11T17:02:15.199Z,12.20
2024-01-11T17:04:47.799Z,11.50
2024-01-11T17:07:20.324Z,11.60
2024-01-11T17:09:53.034Z,12.80
2024-01-11T17:12:25.629Z,20.00
2024-01-11T17:14:58.455Z,13.40
2024-01-11T17:17:31.971Z,14.90
2024-01-11T17:20:04.872Z,64.70
2024-01-11T17:22:37.742Z,23.20
2024-01-11T17:25:13.538Z,18.90
2024-01-11T17:27:46.132Z,14.40
2024-01-11T17:30:19.781Z,52.20
2024-01-11T17:32:52.722Z,26.70
2024-01-11T17:35:25.602Z,34.40
2024-01-11T17:37:58.126Z,29.40
2024-01-11T17:40:31.432Z,28.30
2024-01-11T17:43:05.968Z,35.20
2024-01-11T17:45:39.607Z,17.80
2024-01-11T17:48:12.272Z,25.30
2024-01-11T17:50:45.486Z,18.40
2024-01-11T17:53:19.346Z,16.80
2024-01-11T17:55:51.882Z,14.00
2024-01-11T17:58:24.815Z,13.20
2024-01-11T18:00:59.416Z,13.00
2024-01-11T18:03:31.988Z,16.90
2024-01-11T18:06:04.754Z,14.50
2024-01-11T18:08:37.395Z,26.50
2024-01-11T18:11:11.670Z,40.20
2024-01-11T18:13:44.245Z,28.00
2024-01-11T18:16:16.972Z,48.00
2024-01-11T18:18:50.916Z,47.80
2024-01-11T18:21:23.700Z,45.40
2024-01-11T18:23:57.025Z,48.30
2024-01-11T18:26:31.172Z,36.80
2024-01-11T18:29:04.512Z,36.60
2024-01-11T18:31:37.428Z,28.20
2024-01-11T18:34:10.621Z,29.80
2024-01-11T18:36:49.650Z,49.50
2024-01-11T18:39:22.246Z,49.50
2024-01-11T18:41:55.045Z,42.90
2024-01-11T18:44:27.867Z,40.60
2024-01-11T18:47:01.167Z,50.00
2024-01-11T18:49:34.238Z,37.40
2024-01-11T18:52:07.789Z,39.60
2024-01-11T18:54:40.303Z,43.80
2024-01-11T18:57:15.371Z,58.70
2024-01-11T18:59:48.061Z,61.00
2024-01-11T19:02:20.823Z,53.70
2024-01-11T19:04:54.276Z,39.30
2024-01-11T19:07:29.255Z,79.30
2024-01-11T19:10:04.790Z,60.50
2024-01-11T19:12:37.458Z,43.00
2024-01-11T19:15:12.369Z,46.40
2024-01-11T19:17:45.032Z,41.30
2024-01-11T19:20:19.818Z,36.00
2024-01-11T19:22:52.492Z,41.00
2024-01-11T19:25:25.419Z,32.60
2024-01-11T19:28:01.002Z,29.30
2024-01-11T19:30:33.636Z,69.70
2024-01-11T19:33:08.014Z,98.00
2024-01-11T19:35:40.896Z,91.20
2024-01-11T19:38:14.952Z,170.70
2024-01-11T19:40:47.566Z,166.30
2024-01-11T19:43:20.366Z,86.90
2024-01-11T19:45:52.902Z,60.10
2024-01-11T19:48:25.961Z,72.80
2024-01-11T19:50:59.588Z,126.20
2024-01-11T19:53:32.302Z,115.70
2024-01-11T19:56:05.906Z,116.30
2024-01-11T19:58:38.732Z,150.00
2024-01-11T20:01:11.540Z,134.90
2024-01-11T20:03:44.426Z,117.50
2024-01-11T20:06:17.410Z,93.10
2024-01-11T20:08:51.557Z,87.40
2024-01-11T20:11:25.092Z,89.20
2024-01-11T20:13:58.003Z,73.20
2024-01-11T20:16:30.529Z,75.90
2024-01-11T20:19:03.135Z,70.50
2024-01-11T20:21:35.937Z,92.40
2024-01-11T20:24:36.185Z,73.90
2024-01-11T20:27:09.477Z,67.40
2024-01-11T20:29:42.571Z,69.70
2024-01-11T20:32:15.224Z,52.50
2024-01-11T20:34:47.860Z,61.10
2024-01-11T20:37:20.537Z,70.40
2024-01-11T20:39:53.268Z,83.50
2024-01-11T20:42:25.882Z,72.00
2024-01-11T20:44:58.533Z,54.00
2024-01-11T20:47:31.383Z,85.40
2024-01-11T20:50:04.123Z,74.90
2024-01-11T20:52:37.144Z,81.40
2024-01-11T20:55:09.837Z,70.40
2024-01-11T20:57:42.368Z,70.20
2024-01-11T21:00:20.015Z,58.10
2024-01-11T21:02:54.508Z,26.40
2024-01-11T21:05:32.511Z,34.00
2024-01-11T21:08:05.424Z,35.60
2024-01-11T21:10:38.069Z,28.70
2024-01-11T21:13:12.750Z,31.40
2024-01-11T21:15:45.486Z,29.80
2024-01-11T21:18:21.739Z,15.00
2024-01-11T21:20:57.644Z,26.80
2024-01-11T21:23:30.251Z,27.20
2024-01-11T21:26:02.848Z,31.70
2024-01-11T21:28:35.393Z,54.70
2024-01-11T21:31:08.189Z,23.80
2024-01-11T21:33:45.956Z,23.20
2024-01-11T21:36:23.741Z,32.80
2024-01-11T21:38:59.301Z,47.40
2024-01-11T21:44:03.458Z,24.40
2024-01-11T21:46:36.271Z,13.90
2024-01-11T21:49:09.449Z,16.80
2024-01-11T21:51:42.258Z,8.80
2024-01-11T21:54:14.876Z,37.90
2024-01-11T21:56:47.803Z,52.30
2024-01-11T21:59:30.713Z,48.30
2024-01-11T22:02:03.429Z,350.10
2024-01-11T22:04:36.001Z,239.30
2024-01-11T22:07:10.328Z,190.50
2024-01-11T22:09:44.765Z,220.60
2024-01-11T22:12:19.626Z,161.90
2024-01-11T22:14:52.622Z,76.30
2024-01-11T22:17:25.582Z,58.00
2024-01-11T22:19:58.452Z,36.80
2024-01-11T22:22:31.337Z,33.10
2024-01-11T22:25:04.339Z,29.80
2024-01-11T22:27:37.465Z,25.20
2024-01-11T22:30:15.046Z,25.70
2024-01-11T22:32:49.059Z,27.40
2024-01-11T22:35:31.506Z,22.90
2024-01-11T22:38:40.258Z,25.60
2024-01-11T22:41:15.418Z,15.30
2024-01-11T22:43:48.297Z,29.50
2024-01-11T22:46:20.965Z,30.60
2024-01-11T22:48:54.272Z,24.40
2024-01-11T22:51:27.174Z,27.60
2024-01-11T22:54:00.166Z,17.00
2024-01-11T22:56:36.363Z,16.10
2024-01-11T22:59:10.949Z,32.60
2024-01-11T23:01:45.802Z,29.70
2024-01-11T23:04:18.509Z,18.20
2024-01-11T23:06:51.166Z,23.80
2024-01-11T23:09:24.382Z,22.30
2024-01-11T23:11:57.422Z,24.00
2024-01-11T23:14:30.132Z,27.50
2024-01-11T23:17:02.917Z,31.60
2024-01-11T23:19:35.527Z,37.00
2024-01-11T23:22:08.230Z,43.80
2024-01-11T23:24:40.837Z,49.50
2024-01-11T23:27:13.416Z,34.70
2024-01-11T23:29:46.239Z,43.70
2024-01-11T23:32:18.976Z,35.50
2024-01-11T23:34:51.671Z,31.00
2024-01-11T23:37:24.383Z,44.80
2024-01-11T23:39:56.901Z,20.40
2024-01-11T23:42:29.375Z,11.50
2024-01-11T23:45:03.699Z,21.70
2024-01-11T23:47:36.600Z,22.50
2024-01-11T23:50:09.964Z,15.10
2024-01-11T23:52:42.746Z,10.30
2024-01-11T23:55:15.350Z,25.70
2024-01-11T23:57:48.145Z,14.10
